createdAt,value
2017-03-12T00:05:02.809Z,2.1
2017-03-12T00:06:05.282Z,2
2017-03-12T00:10:15.733Z,2
2017-03-12T00:12:20.625Z,2
2017-03-12T00:13:22.926Z,2
2017-03-12T00:15:28.569Z,2
2017-03-12T00:16:30.597Z,2
2017-03-12T00:19:38.375Z,2
2017-03-12T00:24:51.058Z,1.9
2017-03-12T00:35:16.438Z,1.8
2017-03-12T00:36:18.918Z,1.8
2017-03-12T00:37:21.287Z,1.8
2017-03-12T00:38:23.419Z,1.8
2017-03-12T00:39:26.386Z,1.8
2017-03-12T00:40:29.099Z,1.8
2017-03-12T00:41:31.573Z,1.8
2017-03-12T00:42:34.578Z,1.7
2017-03-12T00:43:37.096Z,1.7
2017-03-12T00:44:39.092Z,1.7
2017-03-12T00:45:41.865Z,1.7
2017-03-12T00:46:44.160Z,1.7
2017-03-12T00:47:47.156Z,1.7
2017-03-12T00:48:49.656Z,1.7
2017-03-12T00:49:52.142Z,1.7
2017-03-12T00:50:54.392Z,1.7
2017-03-12T00:51:56.915Z,1.7
2017-03-12T00:54:01.803Z,1.7
2017-03-12T00:55:04.280Z,1.6
2017-03-12T00:56:07.010Z,1.6
2017-03-12T00:57:09.309Z,1.6
2017-03-12T00:58:11.768Z,1.6
2017-03-12T00:59:14.238Z,1.6
2017-03-12T01:00:16.765Z,1.6
2017-03-12T01:01:19.493Z,1.6
2017-03-12T01:02:22.486Z,1.6
2017-03-12T01:03:24.475Z,1.6
2017-03-12T01:04:26.943Z,1.5
2017-03-12T01:05:29.943Z,1.5
2017-03-12T01:06:32.194Z,1.5
2017-03-12T01:07:34.493Z,1.5
2017-03-12T01:08:36.972Z,1.5
2017-03-12T01:09:39.438Z,1.5
2017-03-12T01:10:43.336Z,1.5
2017-03-12T01:11:44.878Z,1.5
2017-03-12T01:12:47.866Z,1.4
2017-03-12T01:13:49.835Z,1.4
2017-03-12T01:14:52.322Z,1.4
2017-03-12T01:15:54.783Z,1.4
2017-03-12T01:16:57.545Z,1.4
2017-03-12T01:17:59.506Z,1.4
2017-03-12T01:19:03.380Z,1.3
2017-03-12T01:21:07.446Z,1.3
2017-03-12T01:22:10.168Z,1.3
2017-03-12T01:23:12.132Z,1.3
2017-03-12T01:24:15.659Z,1.3
2017-03-12T01:25:17.619Z,1.3
2017-03-12T01:26:20.078Z,1.3
2017-03-12T01:27:22.723Z,1.3
2017-03-12T01:28:25.037Z,1.3
2017-03-12T01:29:27.715Z,1.3
2017-03-12T01:30:30.720Z,1.3
2017-03-12T01:31:32.674Z,1.3
2017-03-12T01:32:35.218Z,1.3
2017-03-12T01:33:37.684Z,1.3
2017-03-12T01:34:40.144Z,1.3
2017-03-12T01:35:42.468Z,1.3
2017-03-12T01:36:44.930Z,1.3
2017-03-12T01:37:48.146Z,1.3
2017-03-12T01:38:50.110Z,1.3
2017-03-12T01:39:52.599Z,1.3
2017-03-12T01:40:55.062Z,1.3
2017-03-12T01:41:57.358Z,1.3
2017-03-12T01:43:00.957Z,1.3
2017-03-12T01:44:03.471Z,1.3
2017-03-12T01:45:05.738Z,1.3
2017-03-12T01:46:07.706Z,1.3
2017-03-12T01:47:10.174Z,1.3
2017-03-12T01:48:12.919Z,1.2
2017-03-12T01:49:15.909Z,1.2
2017-03-12T01:50:17.897Z,1.2
2017-03-12T01:51:20.724Z,1.2
2017-03-12T01:52:23.199Z,1.2
2017-03-12T01:53:25.914Z,1.2
2017-03-12T01:54:27.748Z,1.2
2017-03-12T01:55:30.377Z,1.2
2017-03-12T01:56:32.850Z,1.1
2017-03-12T01:57:35.321Z,1.2
2017-03-12T01:58:38.373Z,1.2
2017-03-12T01:59:40.715Z,1.2
2017-03-12T02:00:43.173Z,1.2
2017-03-12T02:01:46.170Z,1.1
2017-03-12T02:02:48.127Z,1.2
2017-03-12T02:03:50.853Z,1.2
2017-03-12T02:04:53.332Z,1.2
2017-03-12T02:05:55.632Z,1.1
2017-03-12T02:06:58.129Z,1.1
2017-03-12T02:08:00.588Z,1.1
2017-03-12T02:09:03.308Z,1.1
2017-03-12T02:10:06.151Z,1.1
2017-03-12T02:11:08.118Z,1.1
2017-03-12T02:12:10.580Z,1.1
2017-03-12T02:13:13.079Z,1.1
2017-03-12T02:14:16.307Z,1.1
2017-03-12T02:15:18.123Z,1.1
2017-03-12T02:16:21.089Z,1.1
2017-03-12T02:17:23.547Z,1.1
2017-03-12T02:18:27.120Z,1.1
2017-03-12T02:19:28.846Z,1.1
2017-03-12T02:20:30.802Z,1.1
2017-03-12T02:21:33.806Z,1.1
2017-03-12T02:22:35.781Z,1.1
2017-03-12T02:23:38.775Z,1.1
2017-03-12T02:24:40.991Z,1.1
2017-03-12T02:25:43.818Z,1.1
2017-03-12T02:26:45.772Z,1.1
2017-03-12T02:28:51.680Z,1.1
2017-03-12T02:29:53.890Z,1.1
2017-03-12T02:30:56.388Z,1.1
2017-03-12T02:31:59.368Z,1.1
2017-03-12T02:33:01.332Z,1.1
2017-03-12T02:34:03.796Z,1
2017-03-12T02:35:07.051Z,1
2017-03-12T02:36:09.046Z,1
2017-03-12T02:37:11.012Z,1
2017-03-12T02:38:13.491Z,1
2017-03-12T02:39:16.463Z,1
2017-03-12T02:40:19.178Z,1
2017-03-12T02:41:21.139Z,1
2017-03-12T02:42:23.627Z,1
2017-03-12T02:43:26.417Z,1
2017-03-12T02:44:28.876Z,1
2017-03-12T02:45:31.419Z,1
2017-03-12T02:46:33.877Z,1
2017-03-12T02:47:36.350Z,1
2017-03-12T02:48:38.838Z,1
2017-03-12T02:49:41.301Z,1
2017-03-12T02:50:44.021Z,1
2017-03-12T02:51:46.322Z,0.9
2017-03-12T02:52:48.781Z,0.9
2017-03-12T02:53:51.260Z,0.9
2017-03-12T02:54:54.300Z,0.9
2017-03-12T02:55:56.510Z,0.9
2017-03-12T02:56:58.969Z,0.9
2017-03-12T02:58:01.450Z,0.9
2017-03-12T02:59:04.439Z,0.9
2017-03-12T03:00:06.146Z,0.8
2017-03-12T03:01:09.895Z,0.8
2017-03-12T03:02:11.369Z,0.8
2017-03-12T03:03:13.845Z,0.8
2017-03-12T03:04:17.341Z,0.8
2017-03-12T03:05:19.323Z,0.8
2017-03-12T03:06:22.067Z,0.8
2017-03-12T03:07:24.039Z,0.8
2017-03-12T03:08:27.043Z,0.8
2017-03-12T03:09:29.025Z,0.8
2017-03-12T03:10:31.422Z,0.8
2017-03-12T03:11:34.482Z,0.8
2017-03-12T03:12:36.457Z,0.8
2017-03-12T03:13:39.425Z,0.8
2017-03-12T03:14:41.886Z,0.8
2017-03-12T03:15:44.350Z,0.8
2017-03-12T03:16:47.778Z,0.8
2017-03-12T03:17:49.246Z,0.8
2017-03-12T03:18:52.240Z,0.8
2017-03-12T03:19:54.743Z,0.8
2017-03-12T03:20:56.709Z,0.8
2017-03-12T03:21:59.974Z,0.8
2017-03-12T03:23:01.608Z,0.8
2017-03-12T03:24:04.577Z,0.8
2017-03-12T03:26:09.477Z,0.7
2017-03-12T03:27:12.084Z,0.7
2017-03-12T03:28:14.552Z,0.7
2017-03-12T03:29:17.009Z,0.7
2017-03-12T03:30:19.478Z,0.7
2017-03-12T03:31:21.767Z,0.7
2017-03-12T03:32:24.518Z,0.7
2017-03-12T03:33:26.975Z,0.7
2017-03-12T03:34:29.452Z,0.7
2017-03-12T03:35:31.758Z,0.7
2017-03-12T03:36:34.799Z,0.7
2017-03-12T03:37:37.889Z,0.6
2017-03-12T03:38:39.365Z,0.6
2017-03-12T03:39:42.357Z,0.6
2017-03-12T03:40:44.317Z,0.6
2017-03-12T03:41:47.816Z,0.6
2017-03-12T03:42:50.551Z,0.6
2017-03-12T03:43:51.874Z,0.6
2017-03-12T03:44:54.857Z,0.6
2017-03-12T03:45:57.328Z,0.6
2017-03-12T03:46:59.792Z,0.6
2017-03-12T03:48:02.503Z,0.6
2017-03-12T03:49:04.493Z,0.6
2017-03-12T03:50:06.998Z,0.6
2017-03-12T03:51:09.983Z,0.5
2017-03-12T03:52:12.268Z,0.5
2017-03-12T03:53:14.990Z,0.5
2017-03-12T03:54:17.454Z,0.5
2017-03-12T03:55:19.924Z,0.5
2017-03-12T03:56:22.916Z,0.5
2017-03-12T03:57:24.716Z,0.5
2017-03-12T03:58:27.800Z,0.5
2017-03-12T03:59:29.775Z,0.5
2017-03-12T04:00:32.242Z,0.5
2017-03-12T04:01:34.720Z,0.4
2017-03-12T04:02:37.195Z,0.3
2017-03-12T04:03:39.948Z,0.4
2017-03-12T04:04:42.246Z,0.3
2017-03-12T04:05:44.709Z,0.3
2017-03-12T04:06:47.183Z,0.3
2017-03-12T04:07:49.653Z,0.3
2017-03-12T04:08:52.420Z,0.3
2017-03-12T04:09:54.898Z,0.3
2017-03-12T04:10:57.900Z,0.3
2017-03-12T04:11:59.861Z,0.3
2017-03-12T04:13:02.857Z,0.3
2017-03-12T04:14:05.605Z,0.3
2017-03-12T04:15:07.582Z,0.3
2017-03-12T04:16:10.084Z,0.2
2017-03-12T04:17:12.579Z,0.2
2017-03-12T04:18:15.050Z,0.2
2017-03-12T04:19:17.601Z,0.2
2017-03-12T04:20:20.589Z,0.2
2017-03-12T04:21:22.560Z,0.2
2017-03-12T04:22:24.902Z,0.2
2017-03-12T04:23:27.402Z,0.2
2017-03-12T04:24:30.164Z,0.1
2017-03-12T04:25:32.547Z,0.1
2017-03-12T04:26:35.033Z,0.1
2017-03-12T04:27:38.574Z,0.1
2017-03-12T04:28:40.042Z,0.1
2017-03-12T04:29:43.326Z,0.1
2017-03-12T04:30:44.792Z,0.1
2017-03-12T04:31:47.281Z,0.1
2017-03-12T04:32:50.248Z,0.1
2017-03-12T04:34:55.413Z,0.1
2017-03-12T04:35:57.369Z,0
2017-03-12T04:36:59.861Z,0
2017-03-12T04:38:02.346Z,0
2017-03-12T04:39:04.815Z,0
2017-03-12T04:40:07.529Z,0
2017-03-12T04:41:10.005Z,0
2017-03-12T04:42:12.490Z,0
2017-03-12T04:43:14.950Z,0
2017-03-12T04:44:17.637Z,0
2017-03-12T04:45:20.363Z,0
2017-03-12T04:46:22.313Z,0
2017-03-12T04:47:25.273Z,0
2017-03-12T04:48:28.256Z,0
2017-03-12T04:49:30.250Z,0
2017-03-12T04:50:32.994Z,0
2017-03-12T04:51:34.963Z,0
2017-03-12T04:52:37.949Z,0
2017-03-12T04:53:39.919Z,0
2017-03-12T04:55:45.554Z,0
2017-03-12T04:56:47.505Z,0
2017-03-12T04:57:49.809Z,-0.1
2017-03-12T04:58:52.782Z,-0.1
2017-03-12T04:59:55.242Z,-0.1
2017-03-12T05:00:58.495Z,-0.1
2017-03-12T05:01:59.943Z,-0.1
2017-03-12T05:04:05.316Z,-0.1
2017-03-12T05:05:07.771Z,-0.1
2017-03-12T05:06:10.769Z,-0.1
2017-03-12T05:07:12.747Z,-0.1
2017-03-12T05:08:15.198Z,-0.1
2017-03-12T05:09:17.669Z,-0.1
2017-03-12T05:10:20.201Z,-0.1
2017-03-12T05:11:22.934Z,-0.1
2017-03-12T05:12:24.915Z,-0.1
2017-03-12T05:14:30.162Z,-0.1
2017-03-12T05:15:32.829Z,-0.1
2017-03-12T05:16:35.538Z,-0.1
2017-03-12T05:17:37.331Z,-0.1
2017-03-12T05:18:40.293Z,-0.1
2017-03-12T05:19:42.761Z,-0.1
2017-03-12T05:20:45.262Z,-0.1
2017-03-12T05:21:47.997Z,-0.1
2017-03-12T05:22:50.502Z,-0.1
2017-03-12T05:23:52.459Z,-0.1
2017-03-12T05:24:54.932Z,-0.1
2017-03-12T05:25:57.729Z,-0.1
2017-03-12T05:27:00.393Z,-0.1
2017-03-12T05:28:02.890Z,-0.1
2017-03-12T05:29:04.858Z,-0.1
2017-03-12T05:30:07.172Z,-0.1
2017-03-12T05:31:09.956Z,-0.1
2017-03-12T05:32:13.005Z,-0.1
2017-03-12T05:33:14.809Z,-0.1
2017-03-12T05:34:17.767Z,-0.1
2017-03-12T05:35:20.597Z,-0.1
2017-03-12T05:36:23.087Z,-0.1
2017-03-12T05:37:25.301Z,-0.2
2017-03-12T05:38:27.596Z,-0.2
2017-03-12T05:39:30.489Z,-0.2
2017-03-12T05:40:32.614Z,-0.2
2017-03-12T05:41:35.094Z,-0.1
2017-03-12T05:42:37.802Z,-0.1
2017-03-12T05:43:39.773Z,-0.1
2017-03-12T05:44:42.758Z,-0.1
2017-03-12T05:45:45.222Z,-0.1
2017-03-12T05:46:47.514Z,-0.1
2017-03-12T05:47:50.222Z,-0.1
2017-03-12T05:48:52.693Z,-0.1
2017-03-12T05:49:55.152Z,-0.1
2017-03-12T05:50:57.611Z,-0.1
2017-03-12T05:52:00.606Z,-0.1
2017-03-12T05:53:03.361Z,-0.1
2017-03-12T05:54:04.823Z,-0.1
2017-03-12T05:55:07.805Z,-0.1
2017-03-12T05:56:10.298Z,-0.1
2017-03-12T05:57:12.625Z,-0.1
2017-03-12T05:58:15.877Z,-0.1
2017-03-12T05:59:18.385Z,-0.1
2017-03-12T06:00:19.867Z,-0.1
2017-03-12T06:01:22.168Z,0
2017-03-12T06:02:25.123Z,0
2017-03-12T06:03:27.719Z,0
2017-03-12T06:04:30.174Z,0
2017-03-12T06:05:32.474Z,0
2017-03-12T06:06:35.457Z,0
2017-03-12T06:07:37.841Z,0
2017-03-12T06:08:40.107Z,0.1
2017-03-12T06:09:42.576Z,0.1
2017-03-12T06:10:45.039Z,0.1
2017-03-12T06:11:47.499Z,0.1
2017-03-12T06:12:49.954Z,0
2017-03-12T06:13:52.668Z,0
2017-03-12T06:14:55.144Z,0
2017-03-12T06:15:57.628Z,0
2017-03-12T06:17:00.079Z,0.1
2017-03-12T06:18:02.550Z,0
2017-03-12T06:19:05.306Z,0.1
2017-03-12T06:20:07.103Z,0.2
2017-03-12T06:21:09.907Z,0.2
2017-03-12T06:22:12.363Z,0.3
2017-03-12T06:23:14.819Z,0.3
2017-03-12T06:24:17.592Z,0.3
2017-03-12T06:25:20.577Z,0.4
2017-03-12T06:26:23.053Z,0.4
2017-03-12T06:27:25.013Z,0.4
2017-03-12T06:28:27.333Z,0.4
2017-03-12T06:29:30.097Z,0.4
2017-03-12T06:30:32.553Z,0.3
2017-03-12T06:31:35.052Z,0.4
2017-03-12T06:32:37.734Z,0.5
2017-03-12T06:33:39.681Z,0.5
2017-03-12T06:34:42.402Z,0.3
2017-03-12T06:35:45.378Z,0.4
2017-03-12T06:36:47.329Z,0.5
2017-03-12T06:37:50.030Z,0.5
2017-03-12T06:38:52.499Z,0.5
2017-03-12T06:40:57.616Z,0.5
2017-03-12T06:41:59.587Z,0.6
2017-03-12T06:43:02.070Z,0.5
2017-03-12T06:44:04.545Z,0.5
2017-03-12T06:45:07.505Z,0.5
2017-03-12T06:46:10.269Z,0.5
2017-03-12T06:47:12.220Z,0.6
2017-03-12T06:48:14.692Z,0.6
2017-03-12T06:49:17.157Z,0.7
2017-03-12T06:50:20.198Z,0.8
2017-03-12T06:51:22.777Z,0.7
2017-03-12T06:52:24.748Z,0.8
2017-03-12T06:53:27.197Z,0.8
2017-03-12T06:54:29.830Z,0.8
2017-03-12T06:55:32.295Z,0.8
2017-03-12T06:56:35.070Z,0.8
2017-03-12T06:57:37.018Z,0.8
2017-03-12T06:58:40.012Z,0.8
2017-03-12T06:59:42.475Z,0.9
2017-03-12T07:00:45.522Z,1
2017-03-12T07:01:47.750Z,1
2017-03-12T07:02:49.704Z,1
2017-03-12T07:03:52.178Z,1
2017-03-12T07:04:55.150Z,1
2017-03-12T07:05:57.106Z,1.1
2017-03-12T07:06:59.819Z,1.1
2017-03-12T07:08:02.273Z,1.1
2017-03-12T07:09:04.730Z,1.3
2017-03-12T07:10:07.188Z,1.3
2017-03-12T07:11:09.480Z,1.5
2017-03-12T07:12:12.698Z,1.5
2017-03-12T07:14:17.401Z,1.6
2017-03-12T07:15:19.865Z,1.6
2017-03-12T07:18:27.443Z,1.5
2017-03-12T07:19:30.448Z,1.5
2017-03-12T07:20:33.457Z,1.5
2017-03-12T07:21:34.953Z,1.6
2017-03-12T07:22:37.405Z,1.6
2017-03-12T07:23:40.119Z,1.5
2017-03-12T07:24:42.079Z,1.6
2017-03-12T07:25:45.036Z,1.6
2017-03-12T07:26:47.491Z,1.6
2017-03-12T07:27:50.486Z,1.7
2017-03-12T07:28:52.687Z,1.7
2017-03-12T07:29:55.152Z,1.8
2017-03-12T07:32:00.067Z,1.8
2017-03-12T07:33:02.524Z,2
2017-03-12T07:34:05.255Z,1.8
2017-03-12T07:35:07.228Z,1.8
2017-03-12T07:36:09.714Z,1.7
2017-03-12T07:37:12.369Z,1.8
2017-03-12T07:39:17.487Z,2
2017-03-12T07:40:19.962Z,2.1
2017-03-12T07:41:22.854Z,2.1
2017-03-12T07:42:24.843Z,2
2017-03-12T07:43:27.311Z,2
2017-03-12T07:44:29.864Z,2
2017-03-12T07:45:32.351Z,2.1
2017-03-12T07:46:34.822Z,2.3
2017-03-12T07:47:37.286Z,2.2
2017-03-12T07:48:39.770Z,2.3
2017-03-12T07:49:42.991Z,2.3
2017-03-12T07:50:44.671Z,2.4
2017-03-12T07:51:47.649Z,2.6
2017-03-12T07:52:50.113Z,2.8
2017-03-12T07:53:52.596Z,2.7
2017-03-12T07:54:55.842Z,2.6
2017-03-12T07:55:57.318Z,2.6
2017-03-12T07:57:00.279Z,2.6
2017-03-12T07:58:02.624Z,2.8
2017-03-12T07:59:05.248Z,2.8
2017-03-12T08:00:07.971Z,2.8
2017-03-12T08:01:10.463Z,2.8
2017-03-12T08:02:12.267Z,2.9
2017-03-12T08:03:15.224Z,3
2017-03-12T08:04:17.919Z,3
2017-03-12T08:05:20.289Z,3.1
2017-03-12T08:06:22.740Z,3.1
2017-03-12T08:07:25.212Z,3.3
2017-03-12T08:08:27.725Z,3.1
2017-03-12T08:09:30.192Z,3
2017-03-12T08:10:32.921Z,3.2
2017-03-12T08:11:35.423Z,3.3
2017-03-12T08:12:37.713Z,3.5
2017-03-12T08:13:40.183Z,3.6
2017-03-12T08:14:43.165Z,3.8
2017-03-12T08:15:45.780Z,4.3
2017-03-12T08:16:47.733Z,4.6
2017-03-12T08:17:50.695Z,4.6
2017-03-12T08:18:53.164Z,4.5
2017-03-12T08:19:55.623Z,4.3
2017-03-12T08:20:58.357Z,4.3
2017-03-12T08:22:00.819Z,4.2
2017-03-12T08:23:03.273Z,4.6
2017-03-12T08:24:05.560Z,4.5
2017-03-12T08:26:11.210Z,4.6
2017-03-12T08:27:12.997Z,4.7
2017-03-12T08:28:15.788Z,5
2017-03-12T08:29:18.104Z,5.3
2017-03-12T08:30:21.062Z,5.5
2017-03-12T08:31:23.778Z,5.8
2017-03-12T08:32:25.730Z,6.3
2017-03-12T08:33:28.689Z,6.6
2017-03-12T08:35:33.567Z,7.1
2017-03-12T08:36:36.139Z,6.8
2017-03-12T08:37:38.595Z,6.5
2017-03-12T08:38:41.060Z,6.3
2017-03-12T08:39:44.079Z,6.1
2017-03-12T08:40:46.564Z,6.1
2017-03-12T08:42:51.692Z,6.1
2017-03-12T08:43:54.149Z,6.1
2017-03-12T08:44:56.600Z,6.1
2017-03-12T08:45:59.064Z,6
2017-03-12T08:47:01.538Z,6
2017-03-12T08:48:04.772Z,5.9
2017-03-12T08:49:06.738Z,6
2017-03-12T08:50:09.025Z,6
2017-03-12T08:51:12.538Z,5.8
2017-03-12T08:52:14.515Z,5.7
2017-03-12T08:53:17.125Z,5.6
2017-03-12T08:55:22.500Z,5.3
2017-03-12T08:56:24.794Z,5.3
2017-03-12T08:57:27.619Z,5.2
2017-03-12T08:58:30.166Z,5.1
2017-03-12T08:59:32.622Z,5.2
2017-03-12T09:00:35.089Z,5.3
2017-03-12T09:01:38.562Z,5
2017-03-12T09:02:40.355Z,5.1
2017-03-12T09:03:43.126Z,5.1
2017-03-12T09:04:45.596Z,5.1
2017-03-12T09:05:48.058Z,5.1
2017-03-12T09:06:51.014Z,5
2017-03-12T09:07:53.469Z,5
2017-03-12T09:08:56.190Z,5.1
2017-03-12T09:09:58.639Z,5.1
2017-03-12T09:11:00.833Z,5.1
2017-03-12T09:12:03.458Z,5.1
2017-03-12T09:13:06.449Z,5
2017-03-12T09:14:09.156Z,5
2017-03-12T09:15:11.637Z,4.8
2017-03-12T09:16:14.099Z,4.7
2017-03-12T09:17:16.217Z,4.8
2017-03-12T09:18:19.011Z,4.8
2017-03-12T09:19:21.792Z,4.8
2017-03-12T09:20:24.255Z,4.7
2017-03-12T09:21:26.729Z,4.6
2017-03-12T09:22:29.199Z,4.6
2017-03-12T09:23:31.995Z,4.6
2017-03-12T09:24:35.246Z,4.7
2017-03-12T09:25:37.204Z,4.7
2017-03-12T09:26:39.674Z,4.8
2017-03-12T09:27:41.967Z,4.8
2017-03-12T09:28:44.948Z,4.7
2017-03-12T09:29:48.188Z,4.8
2017-03-12T09:31:52.548Z,4.7
2017-03-12T09:32:55.017Z,4.7
2017-03-12T09:33:57.493Z,4.8
2017-03-12T09:35:00.222Z,4.8
2017-03-12T09:36:02.686Z,4.8
2017-03-12T09:37:05.137Z,4.8
2017-03-12T09:38:08.111Z,5
2017-03-12T09:39:10.570Z,5
2017-03-12T09:40:13.306Z,5.1
2017-03-12T09:41:15.759Z,5.1
2017-03-12T09:42:18.206Z,5.3
2017-03-12T09:43:20.684Z,5.3
2017-03-12T09:44:23.141Z,5.2
2017-03-12T09:45:26.699Z,5.2
2017-03-12T09:46:28.150Z,5.3
2017-03-12T09:47:31.108Z,5.1
2017-03-12T09:48:33.402Z,5.2
2017-03-12T09:49:35.870Z,5.1
2017-03-12T09:50:39.108Z,5.2
2017-03-12T09:51:41.065Z,5.3
2017-03-12T09:52:44.041Z,5.1
2017-03-12T09:55:51.561Z,5.1
2017-03-12T09:56:53.806Z,5.2
2017-03-12T09:57:56.798Z,5.3
2017-03-12T10:01:04.820Z,5.4
2017-03-12T10:02:07.301Z,5.4
2017-03-12T10:03:09.590Z,5.4
2017-03-12T10:04:12.046Z,5.4
2017-03-12T10:05:14.504Z,5.4
2017-03-12T10:06:17.219Z,5.3
2017-03-12T10:07:19.508Z,5.2
2017-03-12T10:08:22.492Z,5.3
2017-03-12T10:09:24.972Z,5.3
2017-03-12T10:10:27.435Z,5.3
2017-03-12T10:12:32.549Z,5.4
2017-03-12T10:13:35.008Z,5.4
2017-03-12T10:14:37.486Z,5.3
2017-03-12T10:16:42.859Z,5.2
2017-03-12T10:17:45.572Z,5.2
2017-03-12T10:18:48.022Z,5.1
2017-03-12T10:19:50.484Z,5.1
2017-03-12T10:20:52.944Z,5.1
2017-03-12T10:21:55.410Z,5.1
2017-03-12T10:22:58.625Z,5.1
2017-03-12T10:24:00.576Z,5.1
2017-03-12T10:25:03.548Z,5.2
2017-03-12T10:26:06.005Z,5.2
2017-03-12T10:27:08.294Z,5.1
2017-03-12T10:28:11.536Z,5.1
2017-03-12T10:29:13.527Z,5
2017-03-12T10:30:16.374Z,5
2017-03-12T10:31:18.846Z,5
2017-03-12T10:32:21.303Z,5
2017-03-12T10:33:24.024Z,5
2017-03-12T10:34:27.013Z,5.1
2017-03-12T10:35:28.974Z,5.1
2017-03-12T10:36:31.280Z,5.1
2017-03-12T10:37:34.246Z,5.2
2017-03-12T10:38:36.788Z,5.4
2017-03-12T10:39:39.075Z,5.5
2017-03-12T10:40:41.542Z,5.5
2017-03-12T10:41:44.494Z,5.5
2017-03-12T10:42:46.969Z,5.5
2017-03-12T10:43:50.224Z,5.6
2017-03-12T10:44:52.171Z,5.6
2017-03-12T10:45:54.478Z,5.6
2017-03-12T10:46:56.937Z,5.5
2017-03-12T10:47:59.896Z,5.5
2017-03-12T10:49:03.141Z,5.5
2017-03-12T10:50:05.089Z,5.5
2017-03-12T10:51:07.569Z,5.5
2017-03-12T10:52:10.042Z,5.5
2017-03-12T10:53:12.524Z,5.4
2017-03-12T10:53:42.788Z,5.4
2017-03-12T10:54:15.131Z,5.4
2017-03-12T10:55:17.607Z,5.4
2017-03-12T10:56:20.595Z,5.5
2017-03-12T10:57:23.062Z,5.5
2017-03-12T10:58:25.386Z,5.5
2017-03-12T10:59:27.925Z,5.5
2017-03-12T11:00:30.381Z,5.6
2017-03-12T11:01:33.340Z,5.6
2017-03-12T11:02:35.814Z,5.6
2017-03-12T11:03:38.269Z,5.6
2017-03-12T11:04:41.566Z,5.5
2017-03-12T11:05:43.518Z,5.5
2017-03-12T11:06:45.969Z,5.5
2017-03-12T11:07:48.262Z,5.5
2017-03-12T11:08:51.255Z,5.5
2017-03-12T11:09:54.015Z,5.4
2017-03-12T11:10:56.509Z,5.4
2017-03-12T11:11:58.997Z,5.3
2017-03-12T11:13:01.451Z,5.3
2017-03-12T11:14:03.932Z,5.3
2017-03-12T11:15:07.147Z,5.5
2017-03-12T11:16:09.111Z,5.5
2017-03-12T11:17:11.582Z,5.6
2017-03-12T11:18:14.539Z,5.6
2017-03-12T11:19:17.023Z,5.6
2017-03-12T11:20:19.574Z,5.5
2017-03-12T11:21:21.872Z,5.5
2017-03-12T11:22:24.838Z,5.6
2017-03-12T11:23:27.819Z,5.6
2017-03-12T11:24:29.603Z,5.6
2017-03-12T11:25:32.821Z,5.6
2017-03-12T11:26:34.777Z,5.6
2017-03-12T11:27:37.757Z,5.6
2017-03-12T11:28:40.062Z,5.6
2017-03-12T11:29:42.520Z,5.6
2017-03-12T11:30:45.737Z,5.6
2017-03-12T11:31:47.717Z,5.6
2017-03-12T11:32:51.206Z,5.7
2017-03-12T11:33:53.159Z,5.8
2017-03-12T11:34:55.642Z,5.8
2017-03-12T11:35:58.354Z,5.8
2017-03-12T11:37:00.819Z,6
2017-03-12T11:38:03.286Z,6
2017-03-12T11:39:05.761Z,6.1
2017-03-12T11:40:08.723Z,6.2
2017-03-12T11:43:16.767Z,6
2017-03-12T11:44:19.269Z,6
2017-03-12T11:45:21.235Z,6
2017-03-12T11:46:24.717Z,6
2017-03-12T11:47:26.688Z,6
2017-03-12T11:48:29.401Z,6
2017-03-12T11:49:31.858Z,6.1
2017-03-12T11:50:34.312Z,6.1
2017-03-12T11:51:36.791Z,6.2
2017-03-12T11:52:39.755Z,6.3
2017-03-12T11:53:42.465Z,6.3
2017-03-12T11:54:44.939Z,6.4
2017-03-12T11:55:48.148Z,6.4
2017-03-12T11:56:50.365Z,6.3
2017-03-12T11:57:52.329Z,6.3
2017-03-12T11:58:55.039Z,6.1
2017-03-12T11:59:57.495Z,6
2017-03-12T12:01:00.502Z,6.1
2017-03-12T12:02:03.331Z,6
2017-03-12T12:03:05.858Z,6
2017-03-12T12:04:08.589Z,6
2017-03-12T12:05:10.538Z,6
2017-03-12T12:06:13.536Z,6
2017-03-12T12:07:15.678Z,6
2017-03-12T12:08:17.972Z,6
2017-03-12T12:09:21.222Z,6.1
2017-03-12T12:10:24.046Z,6.1
2017-03-12T12:11:25.840Z,6.1
2017-03-12T12:12:28.838Z,6.1
2017-03-12T12:13:31.359Z,6.2
2017-03-12T12:14:34.082Z,6.3
2017-03-12T12:15:36.569Z,6.4
2017-03-12T12:16:39.574Z,6.5
2017-03-12T12:17:42.063Z,6.5
2017-03-12T12:18:44.044Z,6.5
2017-03-12T12:19:47.267Z,6.6
2017-03-12T12:20:49.763Z,6.5
2017-03-12T12:21:51.552Z,6.5
2017-03-12T12:23:57.978Z,6.4
2017-03-12T12:28:07.756Z,6.3
2017-03-12T12:29:10.749Z,6.5
2017-03-12T12:30:12.712Z,6.5
2017-03-12T12:31:15.176Z,6.5
2017-03-12T12:32:18.186Z,6.5
2017-03-12T12:33:20.903Z,6.5
2017-03-12T12:34:23.461Z,6.5
2017-03-12T12:35:25.422Z,6.6
2017-03-12T12:36:28.389Z,6.6
2017-03-12T12:37:30.690Z,6.6
2017-03-12T12:38:33.919Z,6.6
2017-03-12T12:39:35.678Z,6.6
2017-03-12T12:40:38.673Z,6.7
2017-03-12T12:41:41.343Z,6.7
2017-03-12T12:42:44.334Z,6.7
2017-03-12T12:43:46.380Z,6.7
2017-03-12T12:44:48.839Z,6.8
2017-03-12T12:45:51.798Z,6.8
2017-03-12T12:47:57.196Z,6.9
2017-03-12T12:48:59.410Z,7
2017-03-12T12:50:02.424Z,7.1
2017-03-12T12:51:04.377Z,7.2
2017-03-12T12:52:07.352Z,7.2
2017-03-12T12:53:09.822Z,7.3
2017-03-12T12:54:12.529Z,7.3
2017-03-12T12:55:14.996Z,7.1
2017-03-12T12:56:17.473Z,7.1
2017-03-12T12:57:20.087Z,7.1
2017-03-12T12:59:26.248Z,7.3
2017-03-12T13:00:27.746Z,7.3
2017-03-12T13:01:30.565Z,7.3
2017-03-12T13:02:33.048Z,7.3
2017-03-12T13:03:35.353Z,7.2
2017-03-12T13:05:41.319Z,7.1
2017-03-12T13:06:43.330Z,7.1
2017-03-12T13:07:46.813Z,7
2017-03-12T13:08:48.779Z,7
2017-03-12T13:09:51.251Z,7.1
2017-03-12T13:10:53.960Z,7.1
2017-03-12T13:11:56.435Z,7.3
2017-03-12T13:12:59.226Z,7.4
2017-03-12T13:14:02.202Z,7.5
2017-03-12T13:15:04.492Z,7.5
2017-03-12T13:16:07.116Z,7.5
2017-03-12T13:17:09.419Z,7.3
2017-03-12T13:18:11.885Z,7.2
2017-03-12T13:19:14.848Z,7.3
2017-03-12T13:20:17.838Z,7.3
2017-03-12T13:21:20.080Z,7.4
2017-03-12T13:22:22.549Z,7.5
2017-03-12T13:23:25.413Z,7.6
2017-03-12T13:24:27.722Z,7.8
2017-03-12T13:25:30.732Z,8
2017-03-12T13:26:32.952Z,8
2017-03-12T13:27:35.413Z,8
2017-03-12T13:28:38.258Z,8
2017-03-12T13:29:41.252Z,8.1
2017-03-12T13:30:43.214Z,8.1
2017-03-12T13:31:46.422Z,7.9
2017-03-12T13:32:48.902Z,7.8
2017-03-12T13:33:51.369Z,7.7
2017-03-12T13:34:53.826Z,7.6
2017-03-12T13:35:56.295Z,7.6
2017-03-12T13:36:59.021Z,7.6
2017-03-12T13:38:01.477Z,7.6
2017-03-12T13:39:04.448Z,7.6
2017-03-12T13:40:06.768Z,7.6
2017-03-12T13:41:09.402Z,7.6
2017-03-12T13:42:12.121Z,7.7
2017-03-12T13:43:14.581Z,7.6
2017-03-12T13:44:17.053Z,7.7
2017-03-12T13:45:20.017Z,7.7
2017-03-12T13:47:25.019Z,7.9
2017-03-12T13:48:27.476Z,7.9
2017-03-12T13:49:30.438Z,7.8
2017-03-12T13:50:32.906Z,7.8
2017-03-12T13:51:35.321Z,7.8
2017-03-12T13:52:38.904Z,7.8
2017-03-12T13:53:40.855Z,7.8
2017-03-12T13:54:43.323Z,7.9
2017-03-12T13:55:45.808Z,8
2017-03-12T13:56:48.780Z,8
2017-03-12T13:57:51.527Z,8.1
2017-03-12T13:58:53.993Z,7.9
2017-03-12T13:59:56.474Z,7.9
2017-03-12T14:00:59.459Z,7.8
2017-03-12T14:02:01.438Z,7.7
2017-03-12T14:03:05.179Z,7.6
2017-03-12T14:04:06.460Z,7.5
2017-03-12T14:05:09.417Z,7.4
2017-03-12T14:06:11.879Z,7.3
2017-03-12T14:07:14.843Z,7.2
2017-03-12T14:08:17.565Z,7.1
2017-03-12T14:09:20.050Z,7.2
2017-03-12T14:10:22.519Z,7.2
2017-03-12T14:11:24.820Z,7.3
2017-03-12T14:12:27.788Z,7.3
2017-03-12T14:13:30.508Z,7.4
2017-03-12T14:14:32.996Z,7.4
2017-03-12T14:15:35.453Z,7.4
2017-03-12T14:16:37.742Z,7.3
2017-03-12T14:17:40.711Z,7.4
2017-03-12T14:18:43.968Z,7.4
2017-03-12T14:19:45.757Z,7.4
2017-03-12T14:20:16.034Z,7.4
2017-03-12T14:20:48.828Z,7.4
2017-03-12T14:21:51.284Z,7.3
2017-03-12T14:22:53.741Z,7.2
2017-03-12T14:23:56.517Z,7.2
2017-03-12T14:24:59.498Z,7.2
2017-03-12T14:26:01.465Z,7.2
2017-03-12T14:27:04.251Z,7.1
2017-03-12T14:28:06.706Z,7.1
2017-03-12T14:29:09.816Z,7.1
2017-03-12T14:30:13.165Z,7
2017-03-12T14:31:14.630Z,7
2017-03-12T14:32:17.108Z,7
2017-03-12T14:33:20.079Z,7
2017-03-12T14:34:22.792Z,7.1
2017-03-12T14:36:27.673Z,7.1
2017-03-12T14:37:30.154Z,7
2017-03-12T14:38:33.110Z,7
2017-03-12T14:39:35.654Z,7
2017-03-12T14:40:37.991Z,6.9
2017-03-12T14:41:40.968Z,6.9
2017-03-12T14:42:43.423Z,6.9
2017-03-12T14:43:46.255Z,6.9
2017-03-12T14:44:49.015Z,6.9
2017-03-12T14:45:51.501Z,7
2017-03-12T14:46:53.672Z,7
2017-03-12T14:47:56.685Z,7
2017-03-12T14:48:59.165Z,7
2017-03-12T14:50:01.916Z,7.1
2017-03-12T14:51:04.212Z,7.1
2017-03-12T14:52:06.683Z,7
2017-03-12T14:53:09.163Z,7
2017-03-12T14:54:12.142Z,6.9
2017-03-12T14:56:17.284Z,6.8
2017-03-12T14:57:19.737Z,6.8
2017-03-12T14:58:22.411Z,6.7
2017-03-12T14:59:24.899Z,6.7
2017-03-12T15:00:28.402Z,6.7
2017-03-12T15:01:30.526Z,6.7
2017-03-12T15:02:32.808Z,6.6
2017-03-12T15:04:38.170Z,6.6
2017-03-12T15:05:40.639Z,6.6
2017-03-12T15:06:43.875Z,6.6
2017-03-12T15:07:46.366Z,6.5
2017-03-12T15:08:48.319Z,6.6
2017-03-12T15:09:50.811Z,6.5
2017-03-12T15:10:53.777Z,6.5
2017-03-12T15:11:56.502Z,6.5
2017-03-12T15:12:58.983Z,6.5
2017-03-12T15:14:02.349Z,6.5
2017-03-12T15:15:03.657Z,6.5
2017-03-12T15:16:06.468Z,6.5
2017-03-12T15:17:10.047Z,6.6
2017-03-12T15:18:12.004Z,6.6
2017-03-12T15:19:14.469Z,6.5
2017-03-12T15:20:16.930Z,6.5
2017-03-12T15:21:19.885Z,6.5
2017-03-12T15:22:22.486Z,6.5
2017-03-12T15:23:25.483Z,6.5
2017-03-12T15:24:27.439Z,6.5
2017-03-12T15:25:30.422Z,6.4
2017-03-12T15:26:32.708Z,6.3
2017-03-12T15:27:35.416Z,6.3
2017-03-12T15:28:37.741Z,6.3
2017-03-12T15:29:40.228Z,6.3
2017-03-12T15:30:43.731Z,6.3